createdAt,value
2022-12-18T00:01:22.069Z,38.13
2022-12-18T00:03:49.040Z,33.58
2022-12-18T00:06:17.031Z,34.42
2022-12-18T00:08:44.871Z,39.72
2022-12-18T00:11:17.339Z,33.37
2022-12-18T00:13:44.314Z,40.70
2022-12-18T00:16:13.508Z,36.85
2022-12-18T00:18:40.866Z,39.28
2022-12-18T00:21:09.615Z,35.17
2022-12-18T00:23:37.998Z,41.63
2022-12-18T00:26:08.360Z,39.17
2022-12-18T00:28:34.902Z,35.55
2022-12-18T00:31:10.567Z,40.47
2022-12-18T00:33:38.109Z,42.92
2022-12-18T00:36:06.854Z,43.37
2022-12-18T00:38:34.458Z,44.67
2022-12-18T00:41:01.014Z,40.42
2022-12-18T00:43:27.905Z,40.70
2022-12-18T00:45:54.337Z,39.88
2022-12-18T00:48:20.820Z,43.13
2022-12-18T00:50:49.600Z,35.08
2022-12-18T00:53:16.439Z,42.35
2022-12-18T00:55:43.741Z,38.13
2022-12-18T00:58:11.096Z,38.63
2022-12-18T01:00:37.875Z,39.63
2022-12-18T01:03:05.258Z,34.03
2022-12-18T01:05:32.397Z,36.78
2022-12-18T01:07:59.426Z,39.20
2022-12-18T01:10:26.431Z,35.72
2022-12-18T01:12:52.952Z,39.57
2022-12-18T01:15:19.905Z,37.88
2022-12-18T01:17:46.372Z,41.60
2022-12-18T01:20:13.274Z,40.55
2022-12-18T01:22:39.700Z,48.20
2022-12-18T01:25:06.538Z,34.80
2022-12-18T01:27:34.418Z,38.53
2022-12-18T01:30:00.881Z,39.47
2022-12-18T01:32:27.238Z,32.40
2022-12-18T01:34:53.573Z,38.47
2022-12-18T01:37:19.937Z,38.77
2022-12-18T01:39:46.315Z,39.45
2022-12-18T01:42:15.660Z,41.90
2022-12-18T01:44:59.030Z,38.65
2022-12-18T01:47:37.588Z,34.67
2022-12-18T01:50:09.002Z,32.57
2022-12-18T01:52:37.626Z,35.13
2022-12-18T01:55:07.114Z,41.85
2022-12-18T01:57:34.115Z,36.72
2022-12-18T02:00:04.452Z,37.78
2022-12-18T02:02:31.718Z,39.20
2022-12-18T02:04:58.279Z,35.97
2022-12-18T02:07:30.830Z,32.53
2022-12-18T02:10:07.746Z,41.92
2022-12-18T02:12:49.490Z,33.55
2022-12-18T02:15:42.302Z,31.33
2022-12-18T02:18:19.097Z,39.28
2022-12-18T02:20:50.503Z,34.65
2022-12-18T02:23:51.136Z,35.33
2022-12-18T02:26:29.413Z,34.30
2022-12-18T02:29:05.890Z,31.23
2022-12-18T02:31:39.935Z,36.88
2022-12-18T02:34:08.775Z,32.30
2022-12-18T02:36:39.863Z,38.50
2022-12-18T02:39:09.985Z,36.35
2022-12-18T02:41:37.591Z,32.50
2022-12-18T02:44:10.799Z,33.67
2022-12-18T02:46:44.571Z,32.38
2022-12-18T02:49:45.987Z,31.88
2022-12-18T02:52:30.789Z,34.03
2022-12-18T02:55:18.196Z,33.73
2022-12-18T02:57:54.967Z,30.10
2022-12-18T03:00:25.440Z,26.90
2022-12-18T03:03:04.352Z,36.97
2022-12-18T03:05:45.676Z,29.50
2022-12-18T03:08:29.793Z,30.30
2022-12-18T03:11:03.831Z,28.40
2022-12-18T03:14:07.194Z,31.30
2022-12-18T03:16:36.645Z,27.17
2022-12-18T03:19:07.650Z,29.35
2022-12-18T03:21:43.583Z,29.43
2022-12-18T03:24:11.921Z,29.38
2022-12-18T03:26:45.487Z,32.17
2022-12-18T03:29:22.423Z,27.13
2022-12-18T03:31:57.477Z,31.17
2022-12-18T03:34:36.535Z,24.63
2022-12-18T03:37:03.144Z,26.38
2022-12-18T03:39:29.654Z,23.38
2022-12-18T03:42:11.984Z,28.70
2022-12-18T03:45:03.000Z,24.40
2022-12-18T03:47:33.466Z,27.07
2022-12-18T03:50:15.628Z,25.73
2022-12-18T03:53:01.389Z,23.10
2022-12-18T03:55:31.730Z,26.70
2022-12-18T03:57:59.786Z,25.40
2022-12-18T04:00:26.602Z,25.00
2022-12-18T04:02:55.830Z,30.50
2022-12-18T04:05:25.177Z,24.70
2022-12-18T04:07:53.149Z,22.70
2022-12-18T04:10:19.603Z,24.10
2022-12-18T04:12:46.059Z,22.90
2022-12-18T04:15:13.614Z,26.60
2022-12-18T04:17:48.567Z,23.35
2022-12-18T04:20:15.039Z,22.02
2022-12-18T04:22:41.406Z,25.95
2022-12-18T04:25:08.207Z,23.93
2022-12-18T04:27:35.087Z,20.15
2022-12-18T04:30:01.891Z,22.45
2022-12-18T04:32:28.316Z,21.08
2022-12-18T04:34:54.684Z,22.67
2022-12-18T04:37:21.068Z,20.23
2022-12-18T04:39:47.635Z,24.08
2022-12-18T04:42:13.970Z,20.40
2022-12-18T04:44:40.337Z,21.55
2022-12-18T04:47:06.704Z,19.35
2022-12-18T04:49:33.096Z,21.83
2022-12-18T04:51:59.479Z,19.83
2022-12-18T04:54:26.454Z,15.90
2022-12-18T04:56:52.836Z,16.92
2022-12-18T04:59:19.884Z,22.92
2022-12-18T05:01:46.994Z,16.97
2022-12-18T05:04:13.458Z,21.05
2022-12-18T05:06:39.869Z,15.98
2022-12-18T05:09:06.367Z,18.02
2022-12-18T05:11:32.728Z,17.48
2022-12-18T05:13:59.080Z,17.77
2022-12-18T05:16:25.465Z,16.08
2022-12-18T05:18:51.913Z,18.23
2022-12-18T05:21:18.279Z,16.73
2022-12-18T05:23:44.689Z,19.92
2022-12-18T05:26:16.418Z,17.27
2022-12-18T05:28:42.915Z,15.43
2022-12-18T05:31:09.462Z,19.23
2022-12-18T05:33:36.199Z,19.20
2022-12-18T05:36:05.001Z,23.83
2022-12-18T05:38:33.246Z,16.43
2022-12-18T05:40:59.856Z,19.48
2022-12-18T05:43:27.713Z,15.48
2022-12-18T05:45:54.854Z,17.38
2022-12-18T05:48:22.366Z,17.83
2022-12-18T05:50:50.162Z,16.57
2022-12-18T05:53:20.215Z,18.10
2022-12-18T05:55:47.729Z,17.83
2022-12-18T05:58:15.280Z,17.00
2022-12-18T06:00:43.999Z,15.38
2022-12-18T06:03:11.830Z,14.67
2022-12-18T06:05:43.961Z,18.15
2022-12-18T06:08:11.529Z,18.90
2022-12-18T06:10:38.363Z,13.70
2022-12-18T06:13:05.730Z,16.48
2022-12-18T06:15:32.331Z,16.23
2022-12-18T06:17:58.694Z,22.55
2022-12-18T06:20:29.078Z,15.77
2022-12-18T06:22:58.224Z,22.30
2022-12-18T06:25:24.582Z,18.88
2022-12-18T06:27:50.981Z,15.70
2022-12-18T06:30:17.511Z,17.83
2022-12-18T06:32:43.860Z,16.33
2022-12-18T06:35:10.931Z,14.45
2022-12-18T06:37:37.423Z,15.77
2022-12-18T06:40:04.121Z,14.83
2022-12-18T06:42:30.485Z,14.02
2022-12-18T06:44:56.873Z,19.58
2022-12-18T06:47:23.220Z,15.30
2022-12-18T06:49:50.780Z,17.77
2022-12-18T06:52:17.286Z,17.00
2022-12-18T06:54:43.625Z,23.55
2022-12-18T06:57:10.016Z,16.10
2022-12-18T06:59:36.354Z,15.60
2022-12-18T07:02:02.849Z,13.40
2022-12-18T07:04:30.720Z,17.83
2022-12-18T07:06:57.167Z,15.15
2022-12-18T07:09:23.643Z,12.52
2022-12-18T07:11:50.403Z,15.23
2022-12-18T07:14:16.760Z,11.88
2022-12-18T07:16:43.188Z,16.03
2022-12-18T07:19:09.603Z,16.63
2022-12-18T07:21:36.143Z,13.43
2022-12-18T07:24:02.575Z,16.40
2022-12-18T07:26:28.922Z,12.73
2022-12-18T07:28:57.264Z,13.00
2022-12-18T07:31:24.791Z,16.88
2022-12-18T07:33:52.073Z,14.55
2022-12-18T07:36:18.674Z,14.98
2022-12-18T07:38:48.237Z,15.93
2022-12-18T07:41:14.779Z,13.70
2022-12-18T07:43:42.763Z,15.63
2022-12-18T07:46:10.412Z,12.23
2022-12-18T07:48:36.852Z,11.00
2022-12-18T07:51:06.418Z,15.40
2022-12-18T07:53:34.226Z,14.43
2022-12-18T07:56:26.671Z,16.63
2022-12-18T07:58:49.602Z,17.20
2022-12-18T08:01:16.169Z,11.25
2022-12-18T08:03:43.638Z,15.95
2022-12-18T08:06:10.989Z,14.93
2022-12-18T08:08:37.861Z,12.00
2022-12-18T08:11:04.332Z,16.40
2022-12-18T08:13:30.734Z,13.68
2022-12-18T08:16:01.991Z,10.48
2022-12-18T08:18:29.058Z,14.40
2022-12-18T08:20:56.408Z,11.25
2022-12-18T08:23:22.990Z,13.02
2022-12-18T08:25:49.444Z,12.55
2022-12-18T08:28:15.872Z,13.75
2022-12-18T08:30:43.466Z,14.73
2022-12-18T08:33:09.878Z,14.63
2022-12-18T08:35:42.514Z,13.50
2022-12-18T08:38:11.918Z,14.48
2022-12-18T08:40:38.315Z,15.75
2022-12-18T08:43:23.294Z,13.17
2022-12-18T08:45:49.992Z,18.52
2022-12-18T08:48:21.877Z,17.20
2022-12-18T08:50:58.910Z,17.38
2022-12-18T08:53:25.503Z,18.90
2022-12-18T08:55:51.964Z,15.07
2022-12-18T08:58:18.794Z,16.77
2022-12-18T09:00:45.165Z,18.58
2022-12-18T09:03:13.835Z,21.00
2022-12-18T09:05:40.511Z,20.67
2022-12-18T09:08:06.893Z,18.07
2022-12-18T09:10:35.605Z,19.70
2022-12-18T09:13:03.958Z,17.08
2022-12-18T09:15:30.332Z,11.85
2022-12-18T09:17:56.701Z,15.48
2022-12-18T09:20:23.042Z,13.10
2022-12-18T09:22:49.423Z,15.95
2022-12-18T09:25:16.459Z,12.50
2022-12-18T09:27:42.867Z,16.25
2022-12-18T09:30:09.821Z,16.02
2022-12-18T09:32:36.172Z,12.70
2022-12-18T09:35:02.668Z,12.70
2022-12-18T09:37:29.071Z,11.80
2022-12-18T09:39:55.442Z,16.33
2022-12-18T09:42:23.292Z,12.00
2022-12-18T09:44:54.018Z,10.97
2022-12-18T09:47:32.335Z,15.98
2022-12-18T09:50:24.682Z,14.38
2022-12-18T09:52:55.971Z,12.55
2022-12-18T09:55:36.911Z,11.50
2022-12-18T09:58:33.210Z,12.27
2022-12-18T10:00:59.979Z,14.30
2022-12-18T10:03:26.584Z,10.48
2022-12-18T10:06:04.999Z,11.50
2022-12-18T10:08:40.878Z,10.85
2022-12-18T10:11:45.945Z,9.47
2022-12-18T10:14:31.310Z,10.68
2022-12-18T10:17:19.394Z,9.85
2022-12-18T10:20:41.641Z,11.85
2022-12-18T10:23:26.857Z,10.68
2022-12-18T10:26:07.926Z,9.33
2022-12-18T10:28:37.789Z,11.77
2022-12-18T10:31:06.924Z,9.80
2022-12-18T10:33:34.441Z,9.18
2022-12-18T10:36:01.209Z,11.15
2022-12-18T10:38:29.809Z,14.40
2022-12-18T10:41:05.491Z,7.45
2022-12-18T10:43:33.110Z,11.25
2022-12-18T10:46:13.724Z,9.55
2022-12-18T10:48:40.501Z,13.07
2022-12-18T10:51:12.167Z,11.17
2022-12-18T10:53:42.848Z,11.20
2022-12-18T10:56:09.536Z,12.48
2022-12-18T10:58:38.064Z,12.13
2022-12-18T11:01:07.002Z,8.82
2022-12-18T11:03:45.653Z,10.27
2022-12-18T11:06:22.604Z,9.25
2022-12-18T11:09:12.284Z,9.50
2022-12-18T11:11:40.964Z,8.18
2022-12-18T11:14:23.988Z,8.85
2022-12-18T11:19:41.742Z,13.40
2022-12-18T11:22:24.138Z,10.90
2022-12-18T11:25:29.974Z,9.77
2022-12-18T11:28:00.150Z,9.52
2022-12-18T11:30:32.589Z,11.20
2022-12-18T11:33:16.739Z,12.75
2022-12-18T11:35:51.619Z,11.70
2022-12-18T11:38:40.274Z,10.23
2022-12-18T11:41:49.964Z,11.00
2022-12-18T11:44:25.976Z,10.70
2022-12-18T11:47:10.458Z,9.93
2022-12-18T11:49:37.148Z,11.77
2022-12-18T11:52:22.113Z,14.52
2022-12-18T11:54:52.366Z,10.73
2022-12-18T11:57:29.899Z,10.60
2022-12-18T12:00:12.161Z,11.35
2022-12-18T12:03:00.633Z,10.50
2022-12-18T12:05:33.059Z,10.85
2022-12-18T12:08:13.934Z,10.10
2022-12-18T12:10:58.594Z,13.97
2022-12-18T12:13:31.651Z,10.30
2022-12-18T12:16:08.167Z,13.02
2022-12-18T12:18:53.500Z,9.10
2022-12-18T12:21:29.734Z,10.18
2022-12-18T12:24:38.080Z,14.97
2022-12-18T12:27:18.216Z,10.95
2022-12-18T12:30:03.780Z,12.05
2022-12-18T12:32:54.550Z,12.98
2022-12-18T12:35:37.305Z,12.32
2022-12-18T12:38:20.294Z,13.33
2022-12-18T12:41:02.728Z,11.07
2022-12-18T12:43:48.042Z,9.05
2022-12-18T12:46:20.889Z,12.23
2022-12-18T12:49:00.096Z,10.52
2022-12-18T12:51:29.032Z,14.27
2022-12-18T12:53:58.151Z,11.30
2022-12-18T12:56:33.664Z,11.55
2022-12-18T12:59:08.129Z,12.23
2022-12-18T13:01:40.623Z,12.38
2022-12-18T13:04:24.784Z,11.47
2022-12-18T13:07:14.229Z,14.07
2022-12-18T13:10:25.165Z,12.27
2022-12-18T13:13:08.975Z,11.75
2022-12-18T13:15:46.793Z,13.80
2022-12-18T13:18:24.923Z,15.10
2022-12-18T13:21:03.288Z,12.13
2022-12-18T13:23:37.671Z,13.95
2022-12-18T13:26:07.244Z,15.00
2022-12-18T13:28:33.555Z,14.40
2022-12-18T13:31:03.236Z,11.73
2022-12-18T13:33:29.695Z,11.68
2022-12-18T13:36:11.624Z,12.95
2022-12-18T13:38:40.385Z,11.85
2022-12-18T13:41:15.952Z,11.95
2022-12-18T13:43:46.646Z,11.50
2022-12-18T13:46:28.534Z,12.43
2022-12-18T13:49:04.317Z,11.23
2022-12-18T13:51:33.950Z,11.68
2022-12-18T13:54:04.008Z,12.75
2022-12-18T13:56:33.072Z,11.97
2022-12-18T13:59:14.794Z,10.40
2022-12-18T14:01:53.186Z,11.85
2022-12-18T14:04:19.968Z,13.45
2022-12-18T14:06:48.702Z,13.52
2022-12-18T14:09:21.707Z,12.60
2022-12-18T14:11:50.233Z,12.95
2022-12-18T14:14:19.575Z,12.70
2022-12-18T14:16:47.846Z,12.73
2022-12-18T14:19:19.232Z,14.77
2022-12-18T14:21:50.747Z,14.20
2022-12-18T14:24:22.711Z,13.98
2022-12-18T14:26:51.055Z,12.13
2022-12-18T14:29:24.784Z,11.95
2022-12-18T14:32:17.041Z,14.75
2022-12-18T14:34:51.827Z,13.03
2022-12-18T14:37:23.223Z,13.75
2022-12-18T14:40:04.435Z,14.05
2022-12-18T14:42:35.373Z,15.20
2022-12-18T14:45:42.304Z,14.73
2022-12-18T14:48:30.978Z,13.83
2022-12-18T14:51:02.783Z,12.57
2022-12-18T14:53:36.552Z,17.30
2022-12-18T14:56:13.244Z,14.90
2022-12-18T14:58:40.423Z,14.00
2022-12-18T15:01:07.652Z,12.40
2022-12-18T15:03:34.172Z,18.98
2022-12-18T15:06:17.173Z,16.27
2022-12-18T15:08:43.721Z,14.55
2022-12-18T15:11:33.937Z,15.68
2022-12-18T15:14:01.603Z,11.63
2022-12-18T15:16:28.051Z,14.50
2022-12-18T15:18:54.594Z,12.93
2022-12-18T15:21:22.040Z,14.57
2022-12-18T15:23:53.482Z,15.10
2022-12-18T15:26:22.827Z,14.37
2022-12-18T15:28:52.115Z,14.88
2022-12-18T15:31:28.911Z,12.85
2022-12-18T15:33:55.273Z,15.10
2022-12-18T15:36:26.440Z,15.93
2022-12-18T15:38:55.059Z,15.53
2022-12-18T15:41:24.845Z,14.82
2022-12-18T15:43:53.238Z,17.55
2022-12-18T15:46:22.293Z,17.73
2022-12-18T15:48:50.866Z,17.33
2022-12-18T15:51:21.316Z,19.97
2022-12-18T15:53:49.923Z,17.63
2022-12-18T15:56:35.474Z,23.60
2022-12-18T15:59:02.544Z,21.95
2022-12-18T16:01:31.323Z,19.70
2022-12-18T16:03:58.336Z,16.90
2022-12-18T16:06:24.721Z,15.30
2022-12-18T16:08:51.131Z,13.27
2022-12-18T16:11:38.868Z,14.13
2022-12-18T16:14:20.733Z,18.05
2022-12-18T16:16:49.089Z,15.27
2022-12-18T16:19:15.774Z,22.98
2022-12-18T16:21:42.153Z,15.70
2022-12-18T16:24:20.411Z,16.40
2022-12-18T16:26:46.799Z,14.95
2022-12-18T16:29:13.186Z,15.60
2022-12-18T16:31:39.678Z,17.65
2022-12-18T16:34:13.826Z,14.98
2022-12-18T16:36:40.213Z,20.13
2022-12-18T16:39:06.697Z,16.33
2022-12-18T16:41:33.267Z,19.13
2022-12-18T16:44:00.821Z,19.27
2022-12-18T16:46:27.283Z,17.80
2022-12-18T16:48:53.780Z,19.23
2022-12-18T16:51:20.163Z,16.58
2022-12-18T16:53:46.532Z,17.90
2022-12-18T16:56:12.874Z,21.05
2022-12-18T16:58:39.276Z,19.67
2022-12-18T17:01:09.712Z,18.25
2022-12-18T17:03:36.223Z,22.10
2022-12-18T17:06:05.050Z,15.47
2022-12-18T17:08:31.994Z,21.15
2022-12-18T17:11:07.734Z,19.42
2022-12-18T17:13:35.782Z,19.08
2022-12-18T17:16:07.143Z,22.40
2022-12-18T17:18:34.711Z,22.60
2022-12-18T17:21:07.085Z,23.48
2022-12-18T17:23:33.476Z,19.10
2022-12-18T17:26:00.191Z,21.48
2022-12-18T17:28:27.932Z,19.55
2022-12-18T17:30:55.745Z,25.03
2022-12-18T17:33:23.686Z,20.95
2022-12-18T17:35:50.281Z,22.27
2022-12-18T17:38:16.901Z,18.67
2022-12-18T17:40:46.403Z,19.20
2022-12-18T17:43:13.126Z,21.47
2022-12-18T17:45:40.242Z,25.85
2022-12-18T17:48:07.575Z,19.73
2022-12-18T17:50:35.526Z,20.30
2022-12-18T17:53:02.666Z,22.98
2022-12-18T17:55:29.221Z,19.10
2022-12-18T17:57:55.779Z,22.30
2022-12-18T18:00:22.242Z,18.23
2022-12-18T18:02:48.803Z,21.85
2022-12-18T18:05:15.276Z,24.05
2022-12-18T18:07:42.929Z,17.77
2022-12-18T18:10:09.599Z,22.20
2022-12-18T18:12:55.285Z,20.02
2022-12-18T18:15:22.115Z,21.75
2022-12-18T18:17:48.484Z,26.63
2022-12-18T18:20:22.165Z,18.03
2022-12-18T18:22:48.983Z,18.27
2022-12-18T18:25:15.762Z,19.38
2022-12-18T18:27:42.780Z,19.52
2022-12-18T18:30:12.737Z,21.13
2022-12-18T18:32:39.935Z,17.03
2022-12-18T18:35:19.338Z,24.08
2022-12-18T18:37:55.018Z,22.15
2022-12-18T18:40:21.509Z,21.10
2022-12-18T18:42:48.335Z,17.35
2022-12-18T18:45:14.812Z,22.90
2022-12-18T18:47:41.160Z,19.92
2022-12-18T18:50:07.842Z,24.88
2022-12-18T18:52:34.275Z,20.17
2022-12-18T18:55:13.237Z,20.50
2022-12-18T18:57:40.152Z,18.20
2022-12-18T19:00:07.475Z,18.25
2022-12-18T19:02:34.029Z,18.08
2022-12-18T19:05:00.596Z,21.40
2022-12-18T19:07:30.330Z,18.98
2022-12-18T19:10:03.483Z,18.73
2022-12-18T19:12:49.902Z,18.42
2022-12-18T19:15:16.272Z,19.45
2022-12-18T19:17:42.961Z,18.10
2022-12-18T19:20:13.620Z,18.00
2022-12-18T19:22:39.981Z,18.23
2022-12-18T19:25:06.975Z,21.58
2022-12-18T19:27:36.442Z,26.75
2022-12-18T19:30:03.294Z,28.38
2022-12-18T19:32:29.688Z,23.60
2022-12-18T19:34:57.356Z,26.10
2022-12-18T19:37:23.788Z,26.42
2022-12-18T19:39:52.525Z,23.73
2022-12-18T19:42:25.554Z,44.75
2022-12-18T19:44:54.622Z,45.95
2022-12-18T19:47:23.797Z,26.77
2022-12-18T19:49:50.234Z,23.42
2022-12-18T19:52:16.655Z,25.27
2022-12-18T19:54:43.052Z,27.17
2022-12-18T19:57:11.468Z,32.30
2022-12-18T19:59:38.080Z,20.93
2022-12-18T20:02:05.551Z,18.38
2022-12-18T20:04:32.154Z,22.15
2022-12-18T20:06:58.889Z,19.05
2022-12-18T20:09:25.469Z,22.75
2022-12-18T20:11:52.770Z,26.53
2022-12-18T20:14:23.143Z,22.35
2022-12-18T20:16:51.757Z,23.17
2022-12-18T20:19:18.280Z,20.50
2022-12-18T20:21:45.346Z,18.85
2022-12-18T20:24:12.293Z,19.30
2022-12-18T20:26:39.168Z,18.58
2022-12-18T20:29:05.514Z,22.40
2022-12-18T20:31:32.385Z,24.20
2022-12-18T20:34:01.618Z,22.45
2022-12-18T20:36:30.783Z,24.10
2022-12-18T20:39:01.593Z,24.13
2022-12-18T20:41:35.209Z,27.02
2022-12-18T20:44:21.800Z,23.70
2022-12-18T20:46:54.755Z,22.90
2022-12-18T20:49:21.692Z,19.77
2022-12-18T20:51:53.059Z,24.30
2022-12-18T20:54:19.918Z,20.73
2022-12-18T20:56:46.362Z,21.52
2022-12-18T20:59:12.901Z,23.45
2022-12-18T21:01:42.807Z,20.57
2022-12-18T21:04:15.457Z,22.88
2022-12-18T21:06:50.813Z,21.48
2022-12-18T21:09:18.753Z,20.25
2022-12-18T21:12:03.596Z,19.52
2022-12-18T21:14:33.659Z,20.77
2022-12-18T21:17:03.025Z,22.70
2022-12-18T21:19:30.074Z,21.63
2022-12-18T21:21:56.983Z,22.80
2022-12-18T21:24:24.442Z,21.73
2022-12-18T21:26:51.577Z,23.27
2022-12-18T21:29:20.551Z,24.42
2022-12-18T21:31:47.805Z,21.27
2022-12-18T21:34:20.475Z,20.45
2022-12-18T21:36:47.665Z,25.58
2022-12-18T21:39:15.875Z,23.40
2022-12-18T21:42:01.348Z,21.85
2022-12-18T21:44:27.822Z,23.00
2022-12-18T21:46:58.982Z,25.33
2022-12-18T21:49:30.364Z,24.13
2022-12-18T21:51:58.556Z,24.90
2022-12-18T21:54:27.019Z,22.35
2022-12-18T21:56:55.859Z,21.40
2022-12-18T21:59:23.936Z,24.08
2022-12-18T22:01:51.813Z,25.60
2022-12-18T22:04:19.267Z,24.57
2022-12-18T22:06:46.910Z,32.90
2022-12-18T22:09:16.563Z,34.42
2022-12-18T22:11:43.580Z,24.05
2022-12-18T22:14:10.867Z,26.27
2022-12-18T22:16:37.703Z,21.83
2022-12-18T22:19:04.987Z,23.65
2022-12-18T22:21:36.730Z,26.15
2022-12-18T22:24:17.896Z,20.58
2022-12-18T22:26:46.403Z,23.13
2022-12-18T22:29:37.280Z,24.43
2022-12-18T22:32:05.361Z,21.83
2022-12-18T22:34:36.447Z,21.58
2022-12-18T22:37:03.334Z,24.30
2022-12-18T22:39:30.642Z,23.40
2022-12-18T22:41:57.907Z,22.80
2022-12-18T22:44:24.357Z,23.27
2022-12-18T22:47:05.351Z,20.88
2022-12-18T22:49:35.225Z,21.52
2022-12-18T22:52:03.373Z,24.20
2022-12-18T22:54:29.855Z,26.03
2022-12-18T22:56:56.969Z,24.45
2022-12-18T22:59:23.749Z,20.10
2022-12-18T23:01:56.257Z,20.17
2022-12-18T23:04:29.085Z,25.92
2022-12-18T23:07:01.520Z,23.03
2022-12-18T23:09:28.478Z,23.10
2022-12-18T23:11:54.837Z,26.60
2022-12-18T23:14:21.193Z,24.17
2022-12-18T23:16:47.588Z,21.65
2022-12-18T23:19:16.287Z,26.27
2022-12-18T23:21:42.677Z,21.25
2022-12-18T23:24:09.398Z,21.35
2022-12-18T23:26:37.392Z,23.90
2022-12-18T23:29:04.107Z,25.88
2022-12-18T23:31:33.229Z,26.00
2022-12-18T23:34:01.383Z,27.88
2022-12-18T23:36:28.869Z,24.25
2022-12-18T23:39:00.442Z,21.08
2022-12-18T23:41:30.209Z,25.63
2022-12-18T23:43:57.651Z,24.47
2022-12-18T23:46:27.126Z,22.92
2022-12-18T23:48:58.352Z,23.42
2022-12-18T23:51:25.747Z,25.77
2022-12-18T23:53:53.608Z,26.23
2022-12-18T23:56:20.409Z,25.53
2022-12-18T23:58:48.536Z,27.83
